createdAt,value
2023-04-24T00:00:19.817Z,11.50
2023-04-24T00:00:53.246Z,11.50
2023-04-24T00:01:25.125Z,11.50
2023-04-24T00:01:57.357Z,11.50
2023-04-24T00:02:31.364Z,11.50
2023-04-24T00:03:04.129Z,11.50
2023-04-24T00:03:36.267Z,11.50
2023-04-24T00:04:11.897Z,11.50
2023-04-24T00:04:45.657Z,11.60
2023-04-24T00:05:18.347Z,11.60
2023-04-24T00:05:51.910Z,11.60
2023-04-24T00:06:24.504Z,11.60
2023-04-24T00:06:58.084Z,11.60
2023-04-24T00:07:31.139Z,11.60
2023-04-24T00:08:02.987Z,11.60
2023-04-24T00:08:35.418Z,11.60
2023-04-24T00:09:07.256Z,11.60
2023-04-24T00:09:40.479Z,11.60
2023-04-24T00:10:13.289Z,11.60
2023-04-24T00:10:45.356Z,11.60
2023-04-24T00:11:18.127Z,11.70
2023-04-24T00:11:49.944Z,11.60
2023-04-24T00:12:21.889Z,11.60
2023-04-24T00:12:54.957Z,11.60
2023-04-24T00:13:27.009Z,11.60
2023-04-24T00:13:59.273Z,11.70
2023-04-24T00:14:33.496Z,11.60
2023-04-24T00:15:06.538Z,11.60
2023-04-24T00:15:38.367Z,11.60
2023-04-24T00:16:11.243Z,11.60
2023-04-24T00:16:43.103Z,11.60
2023-04-24T00:17:15.125Z,11.60
2023-04-24T00:17:48.500Z,11.60
2023-04-24T00:18:20.421Z,11.60
2023-04-24T00:18:53.601Z,11.60
2023-04-24T00:19:26.508Z,11.60
2023-04-24T00:19:59.424Z,11.60
2023-04-24T00:20:33.331Z,11.70
2023-04-24T00:21:06.732Z,11.60
2023-04-24T00:21:38.584Z,11.70
2023-04-24T00:22:11.826Z,11.70
2023-04-24T00:22:44.668Z,11.70
2023-04-24T00:23:16.501Z,11.70
2023-04-24T00:23:48.383Z,11.80
2023-04-24T00:24:21.218Z,11.70
2023-04-24T00:24:53.010Z,11.70
2023-04-24T00:25:24.867Z,11.70
2023-04-24T00:25:57.652Z,11.70
2023-04-24T00:26:29.502Z,11.70
2023-04-24T00:27:01.952Z,11.70
2023-04-24T00:27:36.016Z,11.80
2023-04-24T00:28:07.841Z,11.80
2023-04-24T00:28:39.676Z,11.80
2023-04-24T00:29:12.577Z,11.80
2023-04-24T00:29:45.713Z,11.80
2023-04-24T00:30:17.746Z,11.80
2023-04-24T00:30:50.583Z,11.70
2023-04-24T00:31:22.464Z,11.70
2023-04-24T00:31:54.414Z,11.80
2023-04-24T00:32:27.344Z,11.70
2023-04-24T00:32:59.257Z,11.80
2023-04-24T00:33:31.161Z,11.80
2023-04-24T00:34:04.236Z,11.80
2023-04-24T00:34:36.079Z,11.80
2023-04-24T00:35:08.430Z,11.80
2023-04-24T00:35:41.698Z,11.80
2023-04-24T00:36:13.472Z,11.80
2023-04-24T00:36:45.428Z,11.80
2023-04-24T00:37:17.247Z,11.80
2023-04-24T00:37:49.999Z,11.80
2023-04-24T00:38:23.020Z,11.80
2023-04-24T00:38:54.939Z,11.80
2023-04-24T00:39:27.767Z,11.80
2023-04-24T00:39:59.588Z,11.80
2023-04-24T00:40:31.394Z,11.80
2023-04-24T00:41:04.280Z,11.80
2023-04-24T00:41:36.693Z,11.80
2023-04-24T00:42:08.608Z,11.70
2023-04-24T00:42:42.110Z,11.70
2023-04-24T00:43:14.056Z,11.70
2023-04-24T00:43:45.867Z,11.70
2023-04-24T00:44:18.828Z,11.60
2023-04-24T00:44:52.456Z,11.60
2023-04-24T00:45:24.291Z,11.60
2023-04-24T00:45:57.359Z,11.60
2023-04-24T00:46:29.641Z,11.50
2023-04-24T00:47:02.298Z,11.50
2023-04-24T00:47:34.387Z,11.50
2023-04-24T00:48:07.496Z,11.50
2023-04-24T00:48:40.553Z,11.50
2023-04-24T00:49:13.327Z,11.50
2023-04-24T00:49:46.330Z,11.50
2023-04-24T00:50:18.860Z,11.40
2023-04-24T00:50:50.924Z,11.40
2023-04-24T00:51:25.391Z,11.40
2023-04-24T00:51:57.805Z,11.50
2023-04-24T00:52:32.029Z,11.40
2023-04-24T00:53:05.095Z,11.40
2023-04-24T00:53:37.044Z,11.40
2023-04-24T00:54:08.898Z,11.50
2023-04-24T00:54:41.778Z,11.40
2023-04-24T00:55:13.612Z,11.40
2023-04-24T00:55:46.275Z,11.40
2023-04-24T00:56:19.132Z,11.50
2023-04-24T00:56:52.221Z,11.50
2023-04-24T00:57:24.633Z,11.50
2023-04-24T00:57:57.442Z,11.50
2023-04-24T00:58:29.624Z,11.50
2023-04-24T00:59:01.436Z,11.40
2023-04-24T00:59:34.635Z,11.40
2023-04-24T01:00:12.696Z,11.50
2023-04-24T01:00:45.918Z,11.40
2023-04-24T01:01:21.733Z,11.50
2023-04-24T01:01:54.179Z,11.50
2023-04-24T01:02:27.284Z,11.40
2023-04-24T01:03:03.825Z,11.40
2023-04-24T01:03:38.256Z,11.40
2023-04-24T01:04:11.083Z,11.40
2023-04-24T01:04:44.307Z,11.40
2023-04-24T01:05:18.125Z,11.40
2023-04-24T01:05:51.579Z,11.30
2023-04-24T01:06:24.558Z,11.30
2023-04-24T01:06:57.389Z,11.30
2023-04-24T01:07:30.834Z,11.30
2023-04-24T01:08:03.856Z,11.30
2023-04-24T01:08:36.898Z,11.30
2023-04-24T01:09:10.196Z,11.30
2023-04-24T01:09:43.071Z,11.30
2023-04-24T01:10:16.033Z,11.30
2023-04-24T01:10:49.609Z,11.30
2023-04-24T01:11:22.524Z,11.30
2023-04-24T01:11:54.867Z,11.20
2023-04-24T01:12:27.705Z,11.20
2023-04-24T01:12:59.595Z,11.10
2023-04-24T01:13:32.487Z,11.10
2023-04-24T01:14:05.434Z,11.10
2023-04-24T01:14:38.115Z,11.10
2023-04-24T01:15:11.860Z,11.10
2023-04-24T01:15:44.708Z,11.10
2023-04-24T01:16:18.438Z,11.10
2023-04-24T01:16:50.588Z,11.00
2023-04-24T01:17:23.386Z,11.10
2023-04-24T01:17:55.260Z,11.10
2023-04-24T01:18:27.718Z,11.00
2023-04-24T01:19:00.626Z,11.10
2023-04-24T01:19:32.553Z,11.10
2023-04-24T01:20:06.864Z,11.00
2023-04-24T01:20:41.103Z,11.00
2023-04-24T01:21:17.316Z,11.00
2023-04-24T01:21:54.390Z,10.90
2023-04-24T01:22:27.615Z,10.90
2023-04-24T01:23:01.288Z,10.90
2023-04-24T01:23:33.181Z,10.90
2023-04-24T01:24:06.281Z,10.90
2023-04-24T01:24:39.060Z,10.90
2023-04-24T01:25:10.899Z,10.90
2023-04-24T01:25:43.461Z,10.90
2023-04-24T01:26:18.126Z,11.00
2023-04-24T01:26:49.955Z,11.00
2023-04-24T01:27:21.939Z,11.00
2023-04-24T01:27:54.760Z,11.00
2023-04-24T01:28:26.784Z,11.00
2023-04-24T01:28:58.740Z,11.00
2023-04-24T01:29:30.660Z,11.00
2023-04-24T01:30:04.208Z,11.10
2023-04-24T01:30:36.102Z,11.00
2023-04-24T01:31:08.124Z,11.00
2023-04-24T01:31:40.454Z,11.00
2023-04-24T01:32:13.397Z,11.00
2023-04-24T01:32:46.527Z,11.00
2023-04-24T01:33:18.823Z,11.00
2023-04-24T01:33:52.731Z,11.00
2023-04-24T01:34:24.595Z,11.00
2023-04-24T01:34:56.832Z,11.00
2023-04-24T01:35:29.901Z,11.00
2023-04-24T01:36:02.090Z,11.00
2023-04-24T01:36:36.035Z,11.00
2023-04-24T01:37:08.873Z,11.00
2023-04-24T01:37:42.036Z,11.00
2023-04-24T01:38:13.917Z,11.00
2023-04-24T01:38:46.929Z,11.00
2023-04-24T01:39:19.216Z,11.00
2023-04-24T01:39:51.038Z,11.00
2023-04-24T01:40:23.900Z,11.00
2023-04-24T01:40:55.768Z,11.10
2023-04-24T01:41:27.753Z,11.00
2023-04-24T01:41:59.718Z,11.00
2023-04-24T01:42:32.771Z,11.00
2023-04-24T01:43:04.676Z,11.00
2023-04-24T01:43:36.629Z,11.00
2023-04-24T01:44:09.648Z,11.00
2023-04-24T01:44:42.650Z,11.00
2023-04-24T01:45:14.690Z,11.00
2023-04-24T01:45:47.487Z,11.00
2023-04-24T01:46:19.724Z,11.00
2023-04-24T01:46:51.853Z,10.90
2023-04-24T01:47:25.325Z,10.90
2023-04-24T01:47:58.069Z,10.90
2023-04-24T01:48:31.115Z,10.90
2023-04-24T01:49:04.140Z,10.90
2023-04-24T01:49:36.199Z,11.00
2023-04-24T01:50:09.010Z,10.90
2023-04-24T01:50:42.088Z,10.90
2023-04-24T01:51:13.910Z,10.90
2023-04-24T01:51:46.077Z,10.90
2023-04-24T01:52:19.577Z,10.90
2023-04-24T01:52:52.851Z,10.90
2023-04-24T01:53:24.725Z,10.90
2023-04-24T01:53:57.533Z,10.90
2023-04-24T01:54:29.342Z,10.90
2023-04-24T01:55:01.666Z,10.90
2023-04-24T01:55:35.036Z,10.90
2023-04-24T01:56:07.573Z,11.00
2023-04-24T01:56:42.524Z,10.90
2023-04-24T01:57:16.003Z,10.90
2023-04-24T01:57:47.980Z,11.00
2023-04-24T01:58:19.962Z,11.00
2023-04-24T01:58:54.498Z,11.00
2023-04-24T01:59:28.773Z,11.00
2023-04-24T02:00:00.908Z,11.00
2023-04-24T02:00:33.724Z,11.00
2023-04-24T02:01:07.699Z,11.00
2023-04-24T02:01:40.370Z,10.90
2023-04-24T02:02:13.214Z,11.00
2023-04-24T02:02:48.150Z,10.90
2023-04-24T02:03:20.844Z,11.00
2023-04-24T02:03:53.788Z,11.00
2023-04-24T02:04:25.742Z,11.00
2023-04-24T02:04:57.689Z,11.00
2023-04-24T02:05:30.561Z,11.00
2023-04-24T02:06:02.362Z,11.00
2023-04-24T02:06:34.340Z,11.00
2023-04-24T02:07:06.162Z,11.00
2023-04-24T02:07:38.949Z,11.00
2023-04-24T02:08:12.130Z,11.10
2023-04-24T02:08:43.969Z,11.10
2023-04-24T02:09:16.826Z,11.10
2023-04-24T02:09:48.744Z,11.10
2023-04-24T02:10:20.729Z,11.20
2023-04-24T02:10:52.736Z,11.20
2023-04-24T02:11:25.519Z,11.10
2023-04-24T02:11:57.344Z,11.20
2023-04-24T02:12:29.151Z,11.20
2023-04-24T02:13:02.078Z,11.20
2023-04-24T02:13:33.907Z,11.20
2023-04-24T02:14:05.741Z,11.10
2023-04-24T02:14:37.557Z,11.10
2023-04-24T02:15:11.299Z,11.10
2023-04-24T02:15:43.096Z,11.10
2023-04-24T02:16:14.915Z,11.10
2023-04-24T02:16:47.807Z,11.00
2023-04-24T02:17:20.108Z,11.00
2023-04-24T02:17:51.965Z,11.00
2023-04-24T02:18:24.768Z,11.00
2023-04-24T02:18:56.583Z,11.00
2023-04-24T02:19:28.462Z,10.90
2023-04-24T02:20:01.239Z,10.90
2023-04-24T02:20:34.933Z,10.90
2023-04-24T02:21:06.764Z,11.00
2023-04-24T02:21:40.781Z,10.90
2023-04-24T02:22:12.612Z,10.90
2023-04-24T02:22:44.458Z,10.90
2023-04-24T02:23:18.596Z,11.00
2023-04-24T02:23:50.658Z,10.90
2023-04-24T02:24:22.550Z,10.90
2023-04-24T02:24:55.421Z,10.90
2023-04-24T02:25:27.270Z,10.90
2023-04-24T02:25:59.097Z,10.90
2023-04-24T02:26:32.839Z,10.90
2023-04-24T02:27:04.805Z,10.90
2023-04-24T02:27:36.601Z,10.90
2023-04-24T02:28:09.513Z,10.90
2023-04-24T02:28:41.379Z,10.90
2023-04-24T02:29:13.244Z,10.90
2023-04-24T02:29:46.198Z,10.90
2023-04-24T02:30:18.065Z,10.90
2023-04-24T02:30:51.427Z,10.90
2023-04-24T02:31:24.255Z,11.00
2023-04-24T02:31:56.063Z,11.00
2023-04-24T02:32:27.905Z,11.00
2023-04-24T02:33:00.709Z,11.00
2023-04-24T02:33:32.552Z,11.00
2023-04-24T02:34:04.388Z,11.00
2023-04-24T02:34:37.207Z,11.00
2023-04-24T02:35:09.907Z,11.10
2023-04-24T02:35:41.737Z,11.10
2023-04-24T02:36:15.047Z,11.20
2023-04-24T02:36:46.838Z,11.00
2023-04-24T02:37:18.639Z,11.00
2023-04-24T02:37:51.394Z,10.90
2023-04-24T02:38:24.584Z,10.90
2023-04-24T02:38:56.387Z,10.90
2023-04-24T02:39:29.171Z,10.90
2023-04-24T02:40:01.127Z,10.80
2023-04-24T02:40:33.248Z,10.80
2023-04-24T02:41:07.108Z,10.80
2023-04-24T02:41:39.911Z,10.90
2023-04-24T02:42:11.730Z,10.80
2023-04-24T02:42:43.528Z,10.90
2023-04-24T02:43:15.339Z,10.80
2023-04-24T02:43:48.098Z,10.80
2023-04-24T02:44:19.927Z,10.80
2023-04-24T02:44:52.278Z,10.80
2023-04-24T02:45:25.143Z,10.90
2023-04-24T02:45:56.974Z,10.80
2023-04-24T02:46:28.873Z,10.90
2023-04-24T02:47:01.653Z,10.90
2023-04-24T02:47:33.583Z,10.90
2023-04-24T02:48:05.553Z,10.90
2023-04-24T02:48:38.404Z,10.90
2023-04-24T02:49:10.245Z,10.90
2023-04-24T02:49:42.971Z,10.90
2023-04-24T02:50:16.064Z,10.90
2023-04-24T02:50:47.957Z,10.90
2023-04-24T02:51:19.780Z,10.90
2023-04-24T02:51:52.606Z,10.90
2023-04-24T02:52:24.435Z,10.90
2023-04-24T02:52:56.263Z,10.90
2023-04-24T02:53:30.799Z,10.90
2023-04-24T02:54:02.655Z,10.90
2023-04-24T02:54:34.729Z,10.90
2023-04-24T02:55:08.828Z,10.90
2023-04-24T02:55:41.630Z,10.90
2023-04-24T02:56:13.857Z,11.00
2023-04-24T02:56:45.695Z,11.00
2023-04-24T02:57:18.511Z,11.00
2023-04-24T02:57:50.530Z,11.00
2023-04-24T02:58:22.438Z,11.00
2023-04-24T02:58:55.254Z,11.00
2023-04-24T02:59:28.103Z,11.00
2023-04-24T02:59:59.915Z,11.00
2023-04-24T03:00:32.710Z,11.00
2023-04-24T03:01:04.628Z,11.00
2023-04-24T03:01:36.749Z,11.00
2023-04-24T03:02:08.700Z,11.00
2023-04-24T03:02:41.697Z,11.00
2023-04-24T03:03:13.913Z,10.90
2023-04-24T03:03:45.947Z,11.00
2023-04-24T03:04:21.342Z,11.00
2023-04-24T03:04:53.461Z,11.00
2023-04-24T03:05:25.328Z,11.00
2023-04-24T03:05:58.315Z,11.00
2023-04-24T03:06:32.224Z,11.10
2023-04-24T03:07:05.458Z,10.90
2023-04-24T03:07:38.273Z,10.90
2023-04-24T03:08:11.282Z,10.90
2023-04-24T03:08:44.427Z,10.90
2023-04-24T03:09:17.198Z,10.90
2023-04-24T03:09:48.984Z,10.90
2023-04-24T03:10:21.039Z,10.90
2023-04-24T03:10:53.801Z,11.00
2023-04-24T03:11:25.980Z,10.90
2023-04-24T03:11:58.155Z,10.90
2023-04-24T03:12:30.037Z,10.90
2023-04-24T03:13:02.808Z,10.90
2023-04-24T03:13:34.635Z,10.90
2023-04-24T03:14:06.389Z,11.00
2023-04-24T03:14:39.155Z,11.00
2023-04-24T03:15:11.339Z,10.90
2023-04-24T03:15:43.297Z,10.90
2023-04-24T03:16:16.227Z,10.90
2023-04-24T03:16:48.084Z,10.90
2023-04-24T03:17:19.870Z,10.90
2023-04-24T03:17:54.786Z,10.90
2023-04-24T03:18:28.471Z,10.90
2023-04-24T03:19:00.249Z,10.90
2023-04-24T03:19:33.032Z,10.80
2023-04-24T03:20:06.312Z,10.80
2023-04-24T03:20:38.465Z,10.80
2023-04-24T03:21:10.383Z,10.80
2023-04-24T03:21:43.323Z,10.80
2023-04-24T03:22:15.144Z,10.80
2023-04-24T03:22:47.893Z,10.80
2023-04-24T03:23:19.696Z,10.80
2023-04-24T03:23:52.933Z,10.80
2023-04-24T03:24:25.742Z,10.70
2023-04-24T03:24:57.619Z,10.70
2023-04-24T03:25:29.424Z,10.70
2023-04-24T03:26:03.222Z,10.70
2023-04-24T03:26:35.020Z,10.80
2023-04-24T03:27:06.833Z,10.70
2023-04-24T03:27:38.718Z,10.80
2023-04-24T03:28:11.610Z,10.70
2023-04-24T03:28:43.446Z,10.70
2023-04-24T03:29:15.218Z,10.70
2023-04-24T03:29:47.024Z,10.70
2023-04-24T03:30:19.951Z,10.70
2023-04-24T03:30:52.038Z,10.70
2023-04-24T03:31:24.347Z,10.70
2023-04-24T03:31:56.201Z,10.70
2023-04-24T03:32:29.100Z,10.70
2023-04-24T03:33:01.680Z,10.60
2023-04-24T03:33:33.506Z,10.70
2023-04-24T03:34:06.258Z,10.60
2023-04-24T03:34:38.072Z,10.60
2023-04-24T03:35:10.154Z,10.60
2023-04-24T03:35:43.143Z,10.60
2023-04-24T03:36:15.973Z,10.60
2023-04-24T03:36:48.710Z,10.60
2023-04-24T03:37:20.550Z,10.60
2023-04-24T03:37:53.350Z,10.60
2023-04-24T03:38:25.393Z,10.60
2023-04-24T03:38:58.555Z,10.60
2023-04-24T03:39:30.406Z,10.70
2023-04-24T03:40:03.329Z,10.60
2023-04-24T03:40:35.464Z,10.60
2023-04-24T03:41:07.309Z,10.60
2023-04-24T03:41:40.116Z,10.60
2023-04-24T03:42:11.990Z,10.60
2023-04-24T03:42:43.763Z,10.60
2023-04-24T03:43:16.524Z,10.60
2023-04-24T03:43:48.419Z,10.60
2023-04-24T03:44:20.273Z,10.60
2023-04-24T03:44:53.022Z,10.60
2023-04-24T03:45:25.274Z,10.60
2023-04-24T03:45:57.137Z,10.60
2023-04-24T03:46:30.021Z,10.50
2023-04-24T03:47:02.130Z,10.50
2023-04-24T03:47:34.072Z,10.50
2023-04-24T03:48:06.955Z,10.60
2023-04-24T03:48:38.800Z,10.60
2023-04-24T03:49:10.605Z,10.60
2023-04-24T03:49:43.725Z,10.60
2023-04-24T03:50:15.858Z,10.60
2023-04-24T03:50:47.804Z,10.60
2023-04-24T03:51:20.580Z,10.60
2023-04-24T03:51:53.193Z,10.60
2023-04-24T03:52:24.972Z,10.60
2023-04-24T03:52:57.762Z,10.60
2023-04-24T03:53:29.583Z,10.60
2023-04-24T03:54:02.995Z,10.50
2023-04-24T03:54:35.046Z,10.50
2023-04-24T03:55:08.783Z,10.50
2023-04-24T03:55:40.728Z,10.50
2023-04-24T03:56:12.592Z,10.50
2023-04-24T03:56:44.395Z,10.50
2023-04-24T03:57:17.193Z,10.50
2023-04-24T03:57:48.996Z,10.50
2023-04-24T03:58:20.849Z,10.50
2023-04-24T03:58:53.591Z,10.50
2023-04-24T03:59:25.386Z,10.50
2023-04-24T03:59:57.197Z,10.50
2023-04-24T04:00:33.959Z,10.50
2023-04-24T04:01:06.538Z,10.50
2023-04-24T04:01:38.827Z,10.50
2023-04-24T04:02:11.628Z,10.60
2023-04-24T04:02:43.606Z,10.60
2023-04-24T04:03:15.733Z,10.60
2023-04-24T04:03:47.889Z,10.60
2023-04-24T04:04:20.985Z,10.60
2023-04-24T04:04:52.965Z,10.60
2023-04-24T04:05:24.904Z,10.60
2023-04-24T04:05:57.766Z,10.70
2023-04-24T04:06:29.592Z,10.60
2023-04-24T04:07:03.695Z,10.60
2023-04-24T04:07:36.505Z,10.60
2023-04-24T04:08:08.337Z,10.70
2023-04-24T04:08:40.208Z,10.70
2023-04-24T04:09:14.552Z,10.70
2023-04-24T04:09:46.614Z,10.70
2023-04-24T04:10:18.551Z,10.70
2023-04-24T04:10:50.421Z,10.70
2023-04-24T04:11:23.182Z,10.70
2023-04-24T04:11:55.057Z,10.70
2023-04-24T04:12:27.846Z,10.70
2023-04-24T04:12:59.685Z,10.70
2023-04-24T04:13:31.893Z,10.80
2023-04-24T04:14:05.246Z,10.80
2023-04-24T04:14:37.094Z,10.80
2023-04-24T04:15:09.436Z,10.80
2023-04-24T04:15:42.414Z,10.80
2023-04-24T04:16:14.238Z,10.90
2023-04-24T04:16:46.233Z,10.90
2023-04-24T04:17:19.133Z,11.00
2023-04-24T04:17:51.062Z,10.90
2023-04-24T04:18:22.923Z,10.90
2023-04-24T04:18:56.143Z,10.90
2023-04-24T04:19:27.951Z,10.90
2023-04-24T04:19:59.740Z,10.90
2023-04-24T04:20:32.518Z,10.90
2023-04-24T04:21:04.554Z,10.90
2023-04-24T04:21:36.368Z,10.90
2023-04-24T04:22:09.155Z,10.90
2023-04-24T04:22:43.484Z,10.90
2023-04-24T04:23:16.286Z,10.90
2023-04-24T04:23:48.985Z,10.90
2023-04-24T04:24:23.473Z,10.80
2023-04-24T04:24:55.373Z,10.80
2023-04-24T04:25:27.578Z,10.80
2023-04-24T04:26:00.615Z,10.80
2023-04-24T04:26:33.486Z,10.80
2023-04-24T04:27:05.771Z,10.80
2023-04-24T04:27:37.615Z,10.80
2023-04-24T04:28:10.411Z,10.80
2023-04-24T04:28:42.470Z,10.80
2023-04-24T04:29:14.746Z,10.80
2023-04-24T04:29:48.200Z,10.80
2023-04-24T04:30:20.060Z,10.80
2023-04-24T04:30:54.626Z,10.80
2023-04-24T04:31:27.506Z,10.80
2023-04-24T04:31:59.477Z,10.80
2023-04-24T04:32:31.416Z,10.90
2023-04-24T04:33:04.297Z,10.90
2023-04-24T04:33:37.011Z,10.90
2023-04-24T04:34:08.839Z,10.80
2023-04-24T04:34:41.620Z,10.90
2023-04-24T04:35:13.450Z,10.90
2023-04-24T04:35:45.240Z,10.90
2023-04-24T04:36:18.385Z,10.90
2023-04-24T04:36:51.377Z,11.00
2023-04-24T04:37:23.200Z,10.90
2023-04-24T04:37:57.046Z,11.00
2023-04-24T04:38:30.907Z,11.00
2023-04-24T04:39:03.639Z,11.00
2023-04-24T04:39:37.730Z,11.00
2023-04-24T04:40:12.445Z,10.90
2023-04-24T04:40:44.472Z,10.90
2023-04-24T04:41:17.729Z,10.90
2023-04-24T04:41:49.860Z,10.90
2023-04-24T04:42:21.975Z,10.90
2023-04-24T04:42:54.904Z,11.00
2023-04-24T04:43:27.127Z,10.90
2023-04-24T04:43:59.564Z,10.90
2023-04-24T04:44:33.640Z,10.90
2023-04-24T04:45:06.284Z,10.90
2023-04-24T04:45:39.701Z,10.90
2023-04-24T04:46:12.608Z,10.90
2023-04-24T04:46:45.083Z,10.90
2023-04-24T04:47:17.188Z,11.00
2023-04-24T04:47:50.067Z,10.90
2023-04-24T04:48:21.970Z,10.80
2023-04-24T04:48:53.923Z,10.80
2023-04-24T04:49:29.320Z,10.80
2023-04-24T04:50:01.177Z,10.80
2023-04-24T04:50:32.978Z,10.80
2023-04-24T04:51:06.355Z,10.80
2023-04-24T04:51:38.248Z,10.80
2023-04-24T04:52:10.239Z,10.80
2023-04-24T04:52:43.253Z,10.80
2023-04-24T04:53:15.305Z,10.70
2023-04-24T04:53:47.198Z,10.70
2023-04-24T04:54:19.957Z,10.70
2023-04-24T04:54:53.218Z,10.70
2023-04-24T04:55:25.110Z,10.70
2023-04-24T04:55:58.017Z,10.70
2023-04-24T04:56:29.812Z,10.70
2023-04-24T04:57:04.143Z,10.70
2023-04-24T04:57:37.130Z,10.70
2023-04-24T04:58:08.945Z,10.70
2023-04-24T04:58:40.767Z,10.70
2023-04-24T04:59:13.808Z,10.70
2023-04-24T04:59:45.912Z,10.70
2023-04-24T05:00:18.124Z,10.70
2023-04-24T05:00:50.919Z,10.60
2023-04-24T05:01:24.098Z,10.60
2023-04-24T05:01:56.924Z,10.60
2023-04-24T05:02:29.148Z,10.60
2023-04-24T05:03:12.607Z,10.60
2023-04-24T05:03:51.966Z,10.60
2023-04-24T05:04:24.022Z,10.60
2023-04-24T05:04:56.179Z,10.60
2023-04-24T05:05:29.828Z,10.60
2023-04-24T05:06:01.624Z,10.60
2023-04-24T05:06:33.471Z,10.60
2023-04-24T05:07:06.487Z,10.60
2023-04-24T05:07:38.320Z,10.60
2023-04-24T05:08:19.769Z,10.60
2023-04-24T05:08:58.963Z,10.60
2023-04-24T05:09:30.785Z,10.60
2023-04-24T05:10:04.574Z,10.60
2023-04-24T05:10:37.854Z,10.60
2023-04-24T05:11:09.673Z,10.60
2023-04-24T05:11:42.432Z,10.60
2023-04-24T05:12:14.229Z,10.70
2023-04-24T05:12:46.483Z,10.70
2023-04-24T05:13:28.184Z,10.60
2023-04-24T05:14:03.959Z,10.60
2023-04-24T05:14:35.718Z,10.60
2023-04-24T05:15:09.606Z,10.60
2023-04-24T05:15:41.418Z,10.70
2023-04-24T05:16:13.212Z,10.80
2023-04-24T05:16:46.003Z,10.70
2023-04-24T05:17:18.279Z,10.60
2023-04-24T05:17:50.346Z,10.60
2023-04-24T05:18:23.203Z,10.60
2023-04-24T05:18:55.009Z,10.70
2023-04-24T05:19:26.906Z,10.70
2023-04-24T05:19:59.726Z,10.70
2023-04-24T05:20:31.620Z,10.60
2023-04-24T05:21:03.634Z,10.60
2023-04-24T05:21:36.470Z,10.60
2023-04-24T05:22:08.438Z,10.70
2023-04-24T05:22:40.260Z,10.60
2023-04-24T05:23:13.052Z,10.70
2023-04-24T05:23:44.906Z,10.70
2023-04-24T05:24:16.731Z,10.70
2023-04-24T05:24:49.783Z,10.70
2023-04-24T05:25:23.127Z,10.70
2023-04-24T05:25:54.973Z,10.70
2023-04-24T05:26:27.988Z,10.70
2023-04-24T05:27:00.135Z,10.70
2023-04-24T05:27:32.954Z,10.70
2023-04-24T05:28:04.753Z,10.80
2023-04-24T05:28:37.564Z,10.70
2023-04-24T05:29:10.413Z,10.70
2023-04-24T05:29:42.423Z,10.70
2023-04-24T05:30:15.017Z,10.70
2023-04-24T05:30:47.857Z,10.70
2023-04-24T05:31:19.744Z,10.70
2023-04-24T05:31:51.728Z,10.70
2023-04-24T05:32:24.544Z,10.70
2023-04-24T05:32:56.418Z,10.70
2023-04-24T05:33:28.279Z,10.70
2023-04-24T05:34:01.357Z,10.70
2023-04-24T05:34:33.278Z,10.70
2023-04-24T05:35:05.635Z,10.70
2023-04-24T05:35:38.524Z,10.70
2023-04-24T05:36:10.323Z,10.70
2023-04-24T05:36:42.275Z,10.70
2023-04-24T05:37:15.028Z,10.70
2023-04-24T05:37:46.840Z,10.70
2023-04-24T05:38:20.417Z,10.70
2023-04-24T05:38:53.192Z,10.80
2023-04-24T05:39:25.994Z,10.80
2023-04-24T05:39:57.841Z,10.70
2023-04-24T05:40:31.991Z,10.70
2023-04-24T05:41:04.009Z,10.80
2023-04-24T05:41:35.883Z,10.80
2023-04-24T05:42:08.799Z,10.80
2023-04-24T05:42:40.799Z,10.80
2023-04-24T05:43:13.073Z,10.80
2023-04-24T05:43:45.802Z,10.80
2023-04-24T05:44:17.650Z,10.80
2023-04-24T05:44:51.264Z,10.80
2023-04-24T05:45:26.076Z,10.80
2023-04-24T05:45:57.985Z,10.80
2023-04-24T05:46:29.889Z,10.90
2023-04-24T05:47:02.985Z,10.90
2023-04-24T05:47:34.849Z,10.90
2023-04-24T05:48:06.810Z,10.90
2023-04-24T05:48:39.575Z,10.90
2023-04-24T05:49:11.657Z,10.90
2023-04-24T05:49:43.676Z,10.90
2023-04-24T05:50:16.797Z,10.90
2023-04-24T05:50:48.889Z,10.90
2023-04-24T05:51:21.286Z,10.90
2023-04-24T05:51:54.073Z,10.90
2023-04-24T05:52:25.972Z,10.90
2023-04-24T05:52:58.985Z,11.00
2023-04-24T05:53:31.805Z,10.90
2023-04-24T05:54:04.268Z,11.00
2023-04-24T05:54:36.285Z,10.90
2023-04-24T05:55:09.774Z,10.90
2023-04-24T05:55:42.924Z,10.90
2023-04-24T05:56:14.810Z,10.90
2023-04-24T05:56:47.667Z,10.90
2023-04-24T05:57:20.054Z,10.90
2023-04-24T05:57:51.874Z,10.90
2023-04-24T05:58:24.665Z,10.90
2023-04-24T05:58:56.496Z,10.90
2023-04-24T05:59:28.318Z,10.90
2023-04-24T06:00:01.084Z,10.80
2023-04-24T06:00:33.551Z,10.90
2023-04-24T06:01:05.554Z,10.90
2023-04-24T06:01:39.036Z,10.90
2023-04-24T06:02:11.076Z,10.90
2023-04-24T06:02:44.008Z,10.90
2023-04-24T06:03:16.193Z,10.90
2023-04-24T06:03:48.236Z,10.90
2023-04-24T06:04:21.397Z,10.90
2023-04-24T06:04:53.687Z,10.90
2023-04-24T06:05:26.157Z,10.90
2023-04-24T06:05:58.982Z,11.00
2023-04-24T06:06:31.358Z,11.00
2023-04-24T06:07:03.780Z,11.00
2023-04-24T06:07:35.902Z,11.00
2023-04-24T06:08:08.782Z,11.00
2023-04-24T06:08:40.606Z,11.10
2023-04-24T06:09:13.271Z,11.00
2023-04-24T06:09:46.052Z,11.00
2023-04-24T06:10:17.928Z,11.10
2023-04-24T06:10:52.075Z,11.10
2023-04-24T06:11:23.895Z,11.10
2023-04-24T06:11:55.752Z,11.10
2023-04-24T06:12:28.775Z,11.10
2023-04-24T06:13:01.352Z,11.10
2023-04-24T06:13:33.275Z,11.10
2023-04-24T06:14:06.075Z,11.10
2023-04-24T06:14:37.902Z,11.10
2023-04-24T06:15:10.475Z,11.10
2023-04-24T06:15:43.395Z,11.10
2023-04-24T06:16:15.408Z,11.10
2023-04-24T06:16:49.540Z,11.10
2023-04-24T06:17:23.186Z,11.20
2023-04-24T06:17:55.157Z,11.20
2023-04-24T06:18:27.026Z,11.20
2023-04-24T06:19:00.134Z,11.20
2023-04-24T06:19:31.950Z,11.20
2023-04-24T06:20:06.059Z,11.20
2023-04-24T06:20:38.864Z,11.30
2023-04-24T06:21:10.673Z,11.30
2023-04-24T06:21:42.475Z,11.30
2023-04-24T06:22:15.266Z,11.40
2023-04-24T06:22:47.074Z,11.30
2023-04-24T06:23:19.994Z,11.30
2023-04-24T06:23:51.952Z,11.30
2023-04-24T06:24:27.912Z,11.30
2023-04-24T06:25:02.346Z,11.30
2023-04-24T06:25:34.331Z,11.30
2023-04-24T06:26:07.498Z,11.20
2023-04-24T06:26:40.257Z,11.20
2023-04-24T06:27:12.797Z,11.20
2023-04-24T06:27:45.743Z,11.20
2023-04-24T06:28:18.534Z,11.20
2023-04-24T06:28:51.261Z,11.20
2023-04-24T06:29:23.051Z,11.20
2023-04-24T06:29:56.259Z,11.20
2023-04-24T06:30:29.065Z,11.20
2023-04-24T06:31:01.802Z,11.20
2023-04-24T06:31:37.900Z,11.20
2023-04-24T06:32:09.842Z,11.20
2023-04-24T06:32:42.692Z,11.30
2023-04-24T06:33:20.737Z,11.20
2023-04-24T06:33:55.064Z,11.30
2023-04-24T06:34:27.070Z,11.20
2023-04-24T06:34:59.597Z,11.30
2023-04-24T06:35:32.651Z,11.20
2023-04-24T06:36:05.002Z,11.20
2023-04-24T06:36:36.946Z,11.20
2023-04-24T06:37:09.706Z,11.20
2023-04-24T06:37:42.922Z,11.20
2023-04-24T06:38:16.835Z,11.20
2023-04-24T06:38:48.788Z,11.30
2023-04-24T06:39:20.598Z,11.30
2023-04-24T06:39:53.381Z,11.30
2023-04-24T06:40:25.442Z,11.30
2023-04-24T06:40:58.333Z,11.40
2023-04-24T06:41:31.583Z,11.40
2023-04-24T06:42:04.545Z,11.40
2023-04-24T06:42:36.902Z,11.40
2023-04-24T06:43:09.629Z,11.40
2023-04-24T06:43:41.565Z,11.50
2023-04-24T06:44:15.486Z,11.50
2023-04-24T06:44:48.253Z,11.50
2023-04-24T06:45:20.106Z,11.50
2023-04-24T06:45:52.957Z,11.50
2023-04-24T06:46:27.174Z,11.50
2023-04-24T06:46:59.200Z,11.50
2023-04-24T06:47:32.147Z,11.60
2023-04-24T06:48:04.250Z,11.60
2023-04-24T06:48:37.283Z,11.60
2023-04-24T06:49:09.212Z,11.60
2023-04-24T06:49:41.484Z,11.60
2023-04-24T06:50:14.487Z,11.50
2023-04-24T06:50:47.689Z,11.50
2023-04-24T06:51:20.486Z,11.50
2023-04-24T06:51:52.270Z,11.50
2023-04-24T06:52:24.353Z,11.50
2023-04-24T06:52:57.093Z,11.50
2023-04-24T06:53:28.935Z,11.50
2023-04-24T06:54:01.124Z,11.40
2023-04-24T06:54:34.147Z,11.40
2023-04-24T06:55:07.089Z,11.40
2023-04-24T06:55:38.942Z,11.50
2023-04-24T06:56:11.791Z,11.50
2023-04-24T06:56:46.609Z,11.50
2023-04-24T06:57:18.819Z,11.50
2023-04-24T06:57:51.583Z,11.50
2023-04-24T06:58:25.187Z,11.40
2023-04-24T06:58:57.031Z,11.40
2023-04-24T06:59:29.841Z,11.40
2023-04-24T07:00:01.790Z,11.40
2023-04-24T07:00:33.683Z,11.40